Time;durP1;ratioP1;P1;durP2;ratioP2;P2;SDS_P1;SDS_P2;PMS_P1;PMS_P2;Temp;Humidity;BMP_temperature;BMP_pressure;BME280_temperature;BME280_humidity;BME280_pressure;Samples;Min_cycle;Max_cycle;Signal;HPM_P1;HPM_P2
2021/10/19 00:02:15;;;;;;;4.50;2.78;;;;;;;;;;4983850;28;20058;-46
2021/10/19 00:04:40;;;;;;;5.13;3.42;;;;;;;;;;4995425;28;20049;-42
2021/10/19 00:07:06;;;;;;;4.70;2.78;;;;;;;;;;4990065;28;20025;-45
2021/10/19 00:09:32;;;;;;;6.18;2.97;;;;;;;;;;4984436;28;20110;-44
2021/10/19 00:11:57;;;;;;;3.58;2.53;;;;;;;;;;4994416;28;20025;-44
2021/10/19 00:14:22;;;;;;;4.28;2.80;;;;;;;;;;4992970;28;20022;-42
2021/10/19 00:16:47;;;;;;;4.25;2.38;;;;;;;;;;4986816;28;20075;-43
2021/10/19 00:19:13;;;;;;;15.30;3.35;;;;;;;;;;4994803;28;20045;-44
2021/10/19 00:21:38;;;;;;;5.43;3.97;;;;;;;;;;4986598;28;20539;-48
2021/10/19 00:24:03;;;;;;;4.85;2.67;;;;;;;;;;4986293;28;20026;-46
2021/10/19 00:26:29;;;;;;;4.45;3.10;;;;;;;;;;4980918;28;20023;-45
2021/10/19 00:28:54;;;;;;;3.78;2.50;;;;;;;;;;4988705;28;20026;-46
2021/10/19 00:31:20;;;;;;;7.20;2.60;;;;;;;;;;4996013;28;20074;-41
2021/10/19 00:33:45;;;;;;;2.25;1.77;;;;;;;;;;4991585;28;20522;-46
2021/10/19 00:36:10;;;;;;;5.38;3.00;;;;;;;;;;4992967;28;20049;-43
2021/10/19 00:38:36;;;;;;;6.40;3.58;;;;;;;;;;4990007;28;20034;-48
2021/10/19 00:41:01;;;;;;;12.45;3.60;;;;;;;;;;4992851;28;20022;-43
2021/10/19 00:43:27;;;;;;;8.85;3.35;;;;;;;;;;4989483;28;20124;-43
2021/10/19 00:45:52;;;;;;;6.47;2.95;;;;;;;;;;4997121;28;20506;-43
2021/10/19 00:48:18;;;;;;;4.07;3.00;;;;;;;;;;4987705;28;20030;-49
2021/10/19 00:50:45;;;;;;;7.40;4.07;;;;;;;;;;4989231;28;20054;-44
2021/10/19 00:53:10;;;;;;;4.90;3.17;;;;;;;;;;4990956;28;20030;-47
2021/10/19 00:55:35;;;;;;;8.73;3.05;;;;;;;;;;4990081;28;20041;-46
2021/10/19 00:58:01;;;;;;;3.35;3.00;;;;;;;;;;4987044;28;20563;-46
2021/10/19 01:00:27;;;;;;;8.88;2.55;;;;;;;;;;4992023;28;20026;-45
2021/10/19 01:02:52;;;;;;;6.03;4.07;;;;;;;;;;4992544;28;20038;-45
2021/10/19 01:05:17;;;;;;;5.70;3.60;;;;;;;;;;4993418;28;20080;-44
2021/10/19 01:07:43;;;;;;;4.10;3.25;;;;;;;;;;4984224;28;20507;-44
2021/10/19 01:10:08;;;;;;;3.88;3.03;;;;;;;;;;4982939;28;20038;-45
2021/10/19 01:12:34;;;;;;;4.80;2.10;;;;;;;;;;4993064;28;20037;-45
2021/10/19 01:15:05;;;;;;;3.65;3.15;;;;;;;;;;4994051;28;20030;-41
2021/10/19 01:17:31;;;;;;;2.65;2.45;;;;;;;;;;4995624;28;20543;-46
2021/10/19 01:19:56;;;;;;;3.55;2.45;;;;;;;;;;4982167;28;20066;-44
2021/10/19 01:22:21;;;;;;;3.92;2.55;;;;;;;;;;4985687;28;20484;-43
2021/10/19 01:24:46;;;;;;;4.35;2.88;;;;;;;;;;4989898;28;20030;-46
2021/10/19 01:27:12;;;;;;;5.60;2.33;;;;;;;;;;4991132;28;20053;-48
2021/10/19 01:29:37;;;;;;;4.72;2.55;;;;;;;;;;4990636;28;20076;-45
2021/10/19 01:32:03;;;;;;;4.03;2.72;;;;;;;;;;4990338;28;20131;-46
2021/10/19 01:34:32;;;;;;;4.22;2.47;;;;;;;;;;4988125;28;20050;-46
2021/10/19 01:36:57;;;;;;;4.47;3.17;;;;;;;;;;4992277;28;20052;-42
2021/10/19 01:39:22;;;;;;;3.75;2.53;;;;;;;;;;4989900;28;20026;-45
2021/10/19 01:41:48;;;;;;;2.95;2.60;;;;;;;;;;4992425;28;20030;-42
2021/10/19 01:44:14;;;;;;;3.72;3.13;;;;;;;;;;4989487;28;20027;-43
2021/10/19 01:46:39;;;;;;;4.55;3.65;;;;;;;;;;4991585;28;20056;-47
2021/10/19 01:49:04;;;;;;;3.88;3.30;;;;;;;;;;4987657;28;20033;-43
2021/10/19 01:51:30;;;;;;;6.30;3.78;;;;;;;;;;4991133;28;20018;-42
2021/10/19 01:53:55;;;;;;;3.60;3.25;;;;;;;;;;4995304;28;20831;-42
2021/10/19 01:56:20;;;;;;;5.80;3.70;;;;;;;;;;4982228;28;20544;-44
2021/10/19 01:58:46;;;;;;;6.63;2.50;;;;;;;;;;4989352;28;20048;-42
2021/10/19 02:01:11;;;;;;;2.60;2.40;;;;;;;;;;4987908;28;20088;-46
2021/10/19 02:03:36;;;;;;;6.50;3.35;;;;;;;;;;4989651;28;20105;-42
2021/10/19 02:06:02;;;;;;;4.63;3.22;;;;;;;;;;4987703;28;20468;-46
2021/10/19 02:08:27;;;;;;;2.88;2.53;;;;;;;;;;4984316;28;20112;-47
2021/10/19 02:10:53;;;;;;;2.97;2.70;;;;;;;;;;4988956;28;20671;-47
2021/10/19 02:13:18;;;;;;;6.22;2.75;;;;;;;;;;4986853;28;20026;-48
2021/10/19 02:15:43;;;;;;;3.47;2.88;;;;;;;;;;4985169;28;20775;-49
2021/10/19 02:18:09;;;;;;;5.15;3.30;;;;;;;;;;4986225;28;20065;-46
2021/10/19 02:20:35;;;;;;;11.82;3.47;;;;;;;;;;4987299;28;20025;-47
2021/10/19 02:23:00;;;;;;;2.80;2.17;;;;;;;;;;4989205;28;20018;-45
2021/10/19 02:25:26;;;;;;;8.30;3.85;;;;;;;;;;4992437;28;20018;-43
2021/10/19 02:27:52;;;;;;;4.45;3.83;;;;;;;;;;4988188;28;20394;-46
2021/10/19 02:30:17;;;;;;;3.90;2.97;;;;;;;;;;4988614;28;20085;-48
2021/10/19 02:32:43;;;;;;;5.82;3.17;;;;;;;;;;4992791;28;20018;-47
2021/10/19 02:35:09;;;;;;;4.35;3.10;;;;;;;;;;4989384;28;20391;-48
2021/10/19 02:37:35;;;;;;;8.05;3.50;;;;;;;;;;4992335;28;20073;-49
2021/10/19 02:40:00;;;;;;;3.17;2.03;;;;;;;;;;4983434;28;20026;-50
2021/10/19 02:42:25;;;;;;;2.72;2.45;;;;;;;;;;4985258;28;20115;-49
2021/10/19 02:44:51;;;;;;;3.50;2.92;;;;;;;;;;4985910;28;20026;-47
2021/10/19 02:47:16;;;;;;;6.30;4.10;;;;;;;;;;4994830;28;20050;-44
2021/10/19 02:49:41;;;;;;;4.55;3.88;;;;;;;;;;4992352;28;20033;-43
2021/10/19 02:52:08;;;;;;;6.03;4.03;;;;;;;;;;4989922;28;20411;-49
2021/10/19 02:54:34;;;;;;;3.28;2.97;;;;;;;;;;4993648;28;20012;-47
2021/10/19 02:56:59;;;;;;;3.53;2.67;;;;;;;;;;4986678;28;20030;-47
2021/10/19 02:59:25;;;;;;;7.28;3.63;;;;;;;;;;4988939;28;20533;-46
2021/10/19 03:01:50;;;;;;;6.80;4.00;;;;;;;;;;4988391;28;20021;-45
2021/10/19 03:04:15;;;;;;;4.00;2.75;;;;;;;;;;4986678;28;20466;-43
2021/10/19 03:06:40;;;;;;;4.75;3.08;;;;;;;;;;4988255;28;20030;-46
2021/10/19 03:09:06;;;;;;;4.30;3.05;;;;;;;;;;4987617;28;20109;-45
2021/10/19 03:11:31;;;;;;;3.42;2.25;;;;;;;;;;4989939;28;20078;-46
2021/10/19 03:13:56;;;;;;;3.08;2.55;;;;;;;;;;4984576;28;20034;-44
2021/10/19 03:16:22;;;;;;;5.20;2.67;;;;;;;;;;4989450;28;20041;-46
2021/10/19 03:18:49;;;;;;;3.25;2.75;;;;;;;;;;4991057;28;20475;-46
2021/10/19 03:21:14;;;;;;;5.60;3.08;;;;;;;;;;4986307;28;20078;-44
2021/10/19 03:23:39;;;;;;;4.00;3.05;;;;;;;;;;4983852;28;20027;-46
2021/10/19 03:26:05;;;;;;;4.88;3.53;;;;;;;;;;4986144;28;20057;-50
2021/10/19 03:28:30;;;;;;;6.82;2.83;;;;;;;;;;4991219;28;20025;-48
2021/10/19 03:30:56;;;;;;;6.30;3.22;;;;;;;;;;4993119;28;20163;-48
2021/10/19 03:33:21;;;;;;;3.25;2.80;;;;;;;;;;4991193;28;20564;-46
2021/10/19 03:35:46;;;;;;;3.90;2.75;;;;;;;;;;4985390;28;20034;-50
2021/10/19 03:38:11;;;;;;;5.85;4.32;;;;;;;;;;4988434;28;20042;-47
2021/10/19 03:40:37;;;;;;;9.52;4.40;;;;;;;;;;4991696;28;20489;-47
2021/10/19 03:43:04;;;;;;;4.50;3.40;;;;;;;;;;4990159;28;20514;-47
2021/10/19 03:45:29;;;;;;;4.28;3.10;;;;;;;;;;4986782;28;20042;-49
2021/10/19 03:47:55;;;;;;;2.85;2.30;;;;;;;;;;4986022;28;20073;-46
2021/10/19 03:50:20;;;;;;;3.45;3.03;;;;;;;;;;4987507;28;20465;-46
2021/10/19 03:52:45;;;;;;;8.55;4.65;;;;;;;;;;4989912;28;20079;-45
2021/10/19 03:55:11;;;;;;;6.07;3.53;;;;;;;;;;4991299;28;20037;-45
2021/10/19 03:57:39;;;;;;;3.25;2.95;;;;;;;;;;4983786;28;20544;-46
2021/10/19 04:00:04;;;;;;;6.35;3.65;;;;;;;;;;4990171;28;20023;-44
2021/10/19 04:02:29;;;;;;;5.28;2.65;;;;;;;;;;4987641;28;20155;-45
2021/10/19 04:04:55;;;;;;;8.52;4.85;;;;;;;;;;4992702;28;20033;-44
2021/10/19 04:07:20;;;;;;;4.40;3.08;;;;;;;;;;4992916;28;20184;-44
2021/10/19 04:09:45;;;;;;;5.50;4.00;;;;;;;;;;4993248;28;20018;-43
2021/10/19 04:12:10;;;;;;;5.50;2.67;;;;;;;;;;4997709;28;20013;-45
2021/10/19 04:14:36;;;;;;;26.55;4.75;;;;;;;;;;4989933;28;20084;-42
2021/10/19 04:17:01;;;;;;;3.05;2.03;;;;;;;;;;4987350;28;20639;-41
2021/10/19 04:19:27;;;;;;;4.32;3.45;;;;;;;;;;4994094;28;20022;-43
2021/10/19 04:21:52;;;;;;;5.85;3.30;;;;;;;;;;4990615;28;20423;-46
2021/10/19 04:24:18;;;;;;;4.22;2.90;;;;;;;;;;4997000;28;20109;-45
2021/10/19 04:26:43;;;;;;;3.97;3.17;;;;;;;;;;4991538;28;20018;-46
2021/10/19 04:29:09;;;;;;;4.50;3.67;;;;;;;;;;4996922;28;20032;-40
2021/10/19 04:31:36;;;;;;;6.40;3.45;;;;;;;;;;4991949;28;20526;-41
2021/10/19 04:34:02;;;;;;;4.93;2.65;;;;;;;;;;4987729;28;20030;-43
2021/10/19 04:36:27;;;;;;;5.47;3.08;;;;;;;;;;4995744;28;20038;-44
2021/10/19 04:38:53;;;;;;;3.28;2.33;;;;;;;;;;4995327;28;20110;-42
2021/10/19 04:41:18;;;;;;;3.25;2.58;;;;;;;;;;4991928;28;20026;-44
2021/10/19 04:43:43;;;;;;;3.17;2.35;;;;;;;;;;4986901;28;20399;-45
2021/10/19 04:46:09;;;;;;;3.20;2.80;;;;;;;;;;4990459;28;20042;-44
2021/10/19 04:48:34;;;;;;;6.50;4.00;;;;;;;;;;4993748;28;20087;-46
2021/10/19 04:50:59;;;;;;;13.25;3.40;;;;;;;;;;4991724;28;20030;-43
2021/10/19 04:53:24;;;;;;;5.57;3.28;;;;;;;;;;4990934;28;20022;-43
2021/10/19 04:55:50;;;;;;;5.78;3.65;;;;;;;;;;4991652;28;20022;-48
2021/10/19 04:58:15;;;;;;;4.78;3.47;;;;;;;;;;4996987;28;20471;-47
2021/10/19 05:00:43;;;;;;;5.18;3.90;;;;;;;;;;4993397;28;20395;-44
2021/10/19 05:03:08;;;;;;;3.53;2.67;;;;;;;;;;4994020;28;20094;-40
2021/10/19 05:05:35;;;;;;;6.95;3.28;;;;;;;;;;4985820;28;20030;-40
2021/10/19 05:08:00;;;;;;;6.45;3.88;;;;;;;;;;4987887;28;20124;-39
2021/10/19 05:10:25;;;;;;;4.60;3.53;;;;;;;;;;4985864;28;20550;-41
2021/10/19 05:12:51;;;;;;;8.10;4.15;;;;;;;;;;4990178;28;20029;-41
2021/10/19 05:15:16;;;;;;;6.10;3.15;;;;;;;;;;4992857;28;20033;-42
2021/10/19 05:17:44;;;;;;;3.30;2.55;;;;;;;;;;4996616;28;20568;-41
2021/10/19 05:20:10;;;;;;;4.82;2.92;;;;;;;;;;4991905;28;20018;-39
2021/10/19 05:22:35;;;;;;;6.25;4.47;;;;;;;;;;4994034;28;20018;-40
2021/10/19 05:25:00;;;;;;;4.93;3.13;;;;;;;;;;4991699;28;20034;-43
2021/10/19 05:27:26;;;;;;;3.38;2.70;;;;;;;;;;4988642;28;20827;-44
2021/10/19 05:29:51;;;;;;;6.68;4.18;;;;;;;;;;4987645;28;20391;-40
2021/10/19 05:32:17;;;;;;;4.85;3.65;;;;;;;;;;4982952;28;20491;-40
2021/10/19 05:34:42;;;;;;;3.92;3.40;;;;;;;;;;4988261;28;20022;-43
2021/10/19 05:37:08;;;;;;;4.05;3.53;;;;;;;;;;4986417;28;20044;-42
2021/10/19 05:39:33;;;;;;;4.03;3.63;;;;;;;;;;4990419;28;20638;-45
2021/10/19 05:41:59;;;;;;;5.60;4.28;;;;;;;;;;4996329;28;20025;-40
2021/10/19 05:44:25;;;;;;;4.90;2.70;;;;;;;;;;4986096;28;20498;-44
2021/10/19 05:46:50;;;;;;;28.25;5.50;;;;;;;;;;4989906;28;20042;-39
2021/10/19 05:49:15;;;;;;;30.50;6.20;;;;;;;;;;4989584;28;20076;-40
2021/10/19 05:51:40;;;;;;;5.93;5.05;;;;;;;;;;4989931;28;20086;-41
2021/10/19 05:54:06;;;;;;;3.88;2.95;;;;;;;;;;4971898;28;20158;-39
2021/10/19 05:56:31;;;;;;;7.55;3.72;;;;;;;;;;4988254;28;20041;-41
2021/10/19 05:58:56;;;;;;;3.28;2.60;;;;;;;;;;4990062;28;20022;-43
2021/10/19 06:01:22;;;;;;;4.18;3.28;;;;;;;;;;4984301;28;20045;-44
2021/10/19 06:03:47;;;;;;;9.95;3.25;;;;;;;;;;4986636;28;20022;-44
2021/10/19 06:06:13;;;;;;;46.67;11.35;;;;;;;;;;4989241;28;20049;-39
2021/10/19 06:08:38;;;;;;;32.67;10.35;;;;;;;;;;4993925;28;20030;-39
2021/10/19 06:11:03;;;;;;;14.25;5.78;;;;;;;;;;4995604;28;20026;-41
2021/10/19 06:13:29;;;;;;;7.07;4.00;;;;;;;;;;4992385;28;20037;-41
2021/10/19 06:15:54;;;;;;;14.70;4.35;;;;;;;;;;4986973;28;20029;-40
2021/10/19 06:18:20;;;;;;;4.00;3.15;;;;;;;;;;4989214;28;20352;-42
2021/10/19 06:20:46;;;;;;;9.50;4.13;;;;;;;;;;4988589;28;20029;-51
2021/10/19 06:23:12;;;;;;;11.80;3.28;;;;;;;;;;4987004;28;20025;-47
2021/10/19 06:25:37;;;;;;;5.35;3.42;;;;;;;;;;4989647;28;20025;-49
2021/10/19 06:28:03;;;;;;;9.52;5.57;;;;;;;;;;4996136;28;20033;-48
2021/10/19 06:30:28;;;;;;;4.60;3.70;;;;;;;;;;4989819;28;20026;-51
2021/10/19 06:32:54;;;;;;;3.83;3.25;;;;;;;;;;4989582;28;20048;-47
2021/10/19 06:35:19;;;;;;;8.27;4.10;;;;;;;;;;4988740;28;20030;-45
2021/10/19 06:37:44;;;;;;;8.43;3.35;;;;;;;;;;4991887;28;20124;-47
2021/10/19 06:40:10;;;;;;;21.25;4.88;;;;;;;;;;4991723;28;20026;-45
2021/10/19 06:42:35;;;;;;;6.78;4.03;;;;;;;;;;4988455;28;20487;-44
2021/10/19 06:45:00;;;;;;;7.53;4.35;;;;;;;;;;4987405;28;20022;-46
2021/10/19 06:47:29;;;;;;;10.82;4.57;;;;;;;;;;4988979;28;20129;-49
2021/10/19 06:49:54;;;;;;;9.60;4.93;;;;;;;;;;4995637;28;20021;-45
2021/10/19 06:52:20;;;;;;;7.35;5.72;;;;;;;;;;4990850;28;20368;-48
2021/10/19 06:54:45;;;;;;;7.43;6.13;;;;;;;;;;4990822;28;20471;-49
2021/10/19 06:57:11;;;;;;;41.10;13.68;;;;;;;;;;4985948;28;20064;-45
2021/10/19 06:59:37;;;;;;;14.85;8.98;;;;;;;;;;4992606;28;20064;-48
2021/10/19 07:02:02;;;;;;;8.77;7.57;;;;;;;;;;4989365;28;20029;-47
2021/10/19 07:04:27;;;;;;;7.88;5.72;;;;;;;;;;4992843;28;20018;-46
2021/10/19 07:06:53;;;;;;;14.75;8.20;;;;;;;;;;4987199;28;20024;-51
2021/10/19 07:09:18;;;;;;;10.32;8.13;;;;;;;;;;4991160;28;20037;-49
2021/10/19 07:11:43;;;;;;;10.85;5.45;;;;;;;;;;4988627;28;20037;-48
2021/10/19 07:14:09;;;;;;;12.30;8.05;;;;;;;;;;4988511;28;20135;-48
2021/10/19 07:16:34;;;;;;;8.75;5.60;;;;;;;;;;4996825;28;20027;-45
2021/10/19 07:18:59;;;;;;;33.47;29.33;;;;;;;;;;4991978;28;20033;-45
2021/10/19 07:21:24;;;;;;;22.00;11.05;;;;;;;;;;4991493;28;20015;-43
2021/10/19 07:23:50;;;;;;;7.78;6.32;;;;;;;;;;4987854;28;20058;-47
2021/10/19 07:26:15;;;;;;;7.43;6.25;;;;;;;;;;4993175;28;20018;-43
2021/10/19 07:28:40;;;;;;;5.22;4.25;;;;;;;;;;4992910;28;20466;-47
2021/10/19 07:31:06;;;;;;;8.07;4.35;;;;;;;;;;4993521;28;20022;-47
2021/10/19 07:33:31;;;;;;;20.42;6.50;;;;;;;;;;4991462;28;20036;-46
2021/10/19 07:35:56;;;;;;;7.00;4.03;;;;;;;;;;4988183;28;20494;-52
2021/10/19 07:38:22;;;;;;;10.48;5.68;;;;;;;;;;4993087;28;20055;-53
2021/10/19 07:40:47;;;;;;;14.48;10.35;;;;;;;;;;4994193;28;20028;-52
2021/10/19 07:43:12;;;;;;;40.25;11.15;;;;;;;;;;4992989;28;20031;-53
2021/10/19 07:45:39;;;;;;;18.45;6.32;;;;;;;;;;4993038;28;20030;-52
2021/10/19 07:48:05;;;;;;;9.93;5.65;;;;;;;;;;4995594;28;20033;-53
2021/10/19 07:50:30;;;;;;;5.88;4.60;;;;;;;;;;4995125;28;20124;-53
2021/10/19 07:52:59;;;;;;;19.27;11.13;;;;;;;;;;4994135;28;20087;-53
2021/10/19 07:55:26;;;;;;;34.90;15.38;;;;;;;;;;4988491;28;20556;-52
2021/10/19 07:57:52;;;;;;;15.57;11.65;;;;;;;;;;4994141;28;20479;-54
2021/10/19 08:00:22;;;;;;;20.65;10.57;;;;;;;;;;4989564;28;20022;-54
2021/10/19 08:02:48;;;;;;;20.17;10.95;;;;;;;;;;4989794;28;20649;-55
2021/10/19 08:05:14;;;;;;;11.35;7.90;;;;;;;;;;4996408;28;20057;-54
2021/10/19 08:07:40;;;;;;;14.35;7.47;;;;;;;;;;4993288;28;20518;-52
2021/10/19 08:10:05;;;;;;;11.02;7.22;;;;;;;;;;4993638;28;20034;-53
2021/10/19 08:12:31;;;;;;;17.52;7.75;;;;;;;;;;4984954;28;20110;-49
2021/10/19 08:15:00;;;;;;;11.32;6.82;;;;;;;;;;4985862;28;20390;-56
2021/10/19 08:17:26;;;;;;;145.85;29.58;;;;;;;;;;4982856;28;20094;-49
2021/10/19 08:19:51;;;;;;;13.43;7.05;;;;;;;;;;4991022;28;20072;-50
2021/10/19 08:22:16;;;;;;;26.92;7.80;;;;;;;;;;4995297;28;20026;-52
2021/10/19 08:24:42;;;;;;;7.30;6.30;;;;;;;;;;4984857;28;20540;-49
2021/10/19 08:27:07;;;;;;;14.35;11.70;;;;;;;;;;4987317;28;20014;-50
2021/10/19 08:29:32;;;;;;;32.65;12.38;;;;;;;;;;4987852;28;20041;-52
2021/10/19 08:31:57;;;;;;;19.35;9.90;;;;;;;;;;4992104;28;20040;-46
2021/10/19 08:34:23;;;;;;;11.02;8.20;;;;;;;;;;4990144;28;20045;-53
2021/10/19 08:36:48;;;;;;;15.25;7.13;;;;;;;;;;4991866;28;20109;-52
2021/10/19 08:39:14;;;;;;;6.30;5.68;;;;;;;;;;4991471;28;20030;-51
2021/10/19 08:41:39;;;;;;;9.65;5.68;;;;;;;;;;4986466;28;20022;-50
2021/10/19 08:44:05;;;;;;;11.13;9.93;;;;;;;;;;4989144;28;20710;-51
2021/10/19 08:46:30;;;;;;;15.85;12.32;;;;;;;;;;4989540;28;20157;-50
2021/10/19 08:48:55;;;;;;;7.78;4.68;;;;;;;;;;4987822;28;20018;-50
2021/10/19 08:51:20;;;;;;;7.85;5.78;;;;;;;;;;4990143;28;20113;-52
2021/10/19 08:53:46;;;;;;;21.00;9.30;;;;;;;;;;4991204;28;20215;-49
2021/10/19 08:56:11;;;;;;;15.90;6.80;;;;;;;;;;4987733;28;20038;-48
2021/10/19 08:58:40;;;;;;;10.13;9.10;;;;;;;;;;4991368;28;20030;-50
2021/10/19 09:01:09;;;;;;;11.20;7.13;;;;;;;;;;4991446;28;20023;-48
2021/10/19 09:03:34;;;;;;;11.35;10.25;;;;;;;;;;4988633;28;20057;-51
2021/10/19 09:06:01;;;;;;;14.07;8.35;;;;;;;;;;4986362;28;20744;-49
2021/10/19 09:08:26;;;;;;;28.40;12.48;;;;;;;;;;4986276;28;20383;-51
2021/10/19 09:10:52;;;;;;;25.02;19.67;;;;;;;;;;4990898;28;20484;-45
2021/10/19 09:13:18;;;;;;;27.63;19.67;;;;;;;;;;4989626;28;20054;-46
2021/10/19 09:15:44;;;;;;;9.15;8.23;;;;;;;;;;4989825;28;20037;-45
2021/10/19 09:18:11;;;;;;;18.00;9.95;;;;;;;;;;4992232;28;20090;-49
2021/10/19 09:20:39;;;;;;;9.45;6.68;;;;;;;;;;4993700;28;20034;-50
2021/10/19 09:23:05;;;;;;;10.43;9.25;;;;;;;;;;4988986;28;20022;-47
2021/10/19 09:25:32;;;;;;;8.07;6.93;;;;;;;;;;4989868;28;20044;-48
2021/10/19 09:28:00;;;;;;;12.13;9.70;;;;;;;;;;4988683;28;20068;-46
2021/10/19 09:30:36;;;;;;;9.10;7.35;;;;;;;;;;4989601;28;20025;-47
2021/10/19 09:33:03;;;;;;;7.88;5.05;;;;;;;;;;4987221;28;20063;-45
2021/10/19 09:35:30;;;;;;;12.10;7.50;;;;;;;;;;4986036;28;20682;-45
2021/10/19 09:37:56;;;;;;;10.45;6.10;;;;;;;;;;4987249;28;20034;-46
2021/10/19 09:40:28;;;;;;;12.32;5.60;;;;;;;;;;4992802;28;20054;-47
2021/10/19 09:43:00;;;;;;;6.05;4.50;;;;;;;;;;4988035;28;20031;-51
2021/10/19 09:45:26;;;;;;;4.72;3.58;;;;;;;;;;4991669;28;20074;-49
2021/10/19 09:47:51;;;;;;;4.75;3.85;;;;;;;;;;4991562;28;20046;-47
2021/10/19 09:50:17;;;;;;;9.75;5.38;;;;;;;;;;4989089;28;20026;-45
2021/10/19 09:52:43;;;;;;;16.35;4.65;;;;;;;;;;4987636;28;20049;-51
2021/10/19 09:55:12;;;;;;;10.38;4.20;;;;;;;;;;4992763;28;20143;-52
2021/10/19 09:57:38;;;;;;;5.63;3.97;;;;;;;;;;4987022;28;20042;-47
2021/10/19 10:00:04;;;;;;;6.38;4.47;;;;;;;;;;4981959;28;20498;-47
2021/10/19 10:02:30;;;;;;;6.50;5.35;;;;;;;;;;4989844;28;20022;-49
2021/10/19 10:04:55;;;;;;;5.03;4.53;;;;;;;;;;4988749;28;20032;-46
2021/10/19 10:07:22;;;;;;;4.13;3.35;;;;;;;;;;4991210;28;20032;-49
2021/10/19 10:09:48;;;;;;;12.32;4.78;;;;;;;;;;4989623;28;20022;-51
2021/10/19 10:12:13;;;;;;;7.60;3.67;;;;;;;;;;4987704;28;20044;-49
2021/10/19 10:14:48;;;;;;;5.53;4.70;;;;;;;;;;4991552;28;20545;-46
2021/10/19 10:17:14;;;;;;;10.07;5.40;;;;;;;;;;4985639;28;20043;-49
2021/10/19 10:19:40;;;;;;;6.57;5.47;;;;;;;;;;4988366;28;20496;-49
2021/10/19 10:22:15;;;;;;;5.70;4.22;;;;;;;;;;4990544;28;20040;-51
2021/10/19 10:24:42;;;;;;;8.75;5.40;;;;;;;;;;4987765;28;20037;-49
2021/10/19 10:27:16;;;;;;;8.20;4.20;;;;;;;;;;4991124;28;20027;-46
2021/10/19 10:29:43;;;;;;;4.90;3.90;;;;;;;;;;4990404;28;20034;-49
2021/10/19 10:32:41;;;;;;;7.03;4.45;;;;;;;;;;4992463;28;20049;-51
2021/10/19 10:35:10;;;;;;;5.68;4.25;;;;;;;;;;5006780;28;20038;-51
2021/10/19 10:37:36;;;;;;;6.53;4.75;;;;;;;;;;4992819;28;20030;-50
2021/10/19 10:40:01;;;;;;;5.72;3.72;;;;;;;;;;4991818;28;20018;-50
2021/10/19 10:42:34;;;;;;;3.10;2.40;;;;;;;;;;4988551;28;20237;-51
2021/10/19 10:44:59;;;;;;;7.50;5.50;;;;;;;;;;4988119;28;20064;-48
2021/10/19 10:47:26;;;;;;;5.20;4.70;;;;;;;;;;4991507;28;20576;-51
2021/10/19 10:49:51;;;;;;;4.88;4.07;;;;;;;;;;4994440;28;20079;-48
2021/10/19 10:52:17;;;;;;;11.57;2.42;;;;;;;;;;4987765;28;20014;-49
2021/10/19 10:54:55;;;;;;;9.00;3.75;;;;;;;;;;4985353;28;20497;-51
2021/10/19 10:57:21;;;;;;;4.18;2.80;;;;;;;;;;4986138;28;20122;-49
2021/10/19 10:59:53;;;;;;;11.77;3.97;;;;;;;;;;4990915;28;20154;-51
2021/10/19 11:02:19;;;;;;;4.85;3.65;;;;;;;;;;4991291;28;20026;-45
2021/10/19 11:04:48;;;;;;;9.63;3.30;;;;;;;;;;4985958;28;20010;-44
2021/10/19 11:07:23;;;;;;;10.65;4.93;;;;;;;;;;4988538;28;20014;-47
2021/10/19 11:09:48;;;;;;;4.63;3.83;;;;;;;;;;4988097;28;20034;-47
2021/10/19 11:12:17;;;;;;;9.07;3.20;;;;;;;;;;4987423;28;20033;-49
2021/10/19 11:14:43;;;;;;;6.55;4.30;;;;;;;;;;4989631;28;20066;-48
2021/10/19 11:17:09;;;;;;;13.05;4.90;;;;;;;;;;4995053;28;20038;-50
2021/10/19 11:19:35;;;;;;;20.10;4.13;;;;;;;;;;4987469;28;20026;-45
2021/10/19 11:22:05;;;;;;;9.65;3.78;;;;;;;;;;4986001;28;20026;-46
2021/10/19 11:24:31;;;;;;;3.97;2.65;;;;;;;;;;4990532;28;20023;-45
2021/10/19 11:26:57;;;;;;;6.63;3.38;;;;;;;;;;4990272;28;20038;-48
2021/10/19 11:29:23;;;;;;;4.20;3.47;;;;;;;;;;4990831;28;20022;-44
2021/10/19 11:31:48;;;;;;;4.45;3.60;;;;;;;;;;4999566;28;20020;-48
2021/10/19 11:34:14;;;;;;;11.43;3.35;;;;;;;;;;4992115;28;20491;-45
2021/10/19 11:36:39;;;;;;;10.38;4.30;;;;;;;;;;4985110;28;20026;-46
2021/10/19 11:39:12;;;;;;;4.95;3.03;;;;;;;;;;4987194;28;20467;-46
2021/10/19 11:41:38;;;;;;;9.75;4.30;;;;;;;;;;4988169;28;20025;-44
2021/10/19 11:44:04;;;;;;;19.88;4.13;;;;;;;;;;4988684;28;20612;-47
2021/10/19 11:46:31;;;;;;;7.05;4.32;;;;;;;;;;4987921;28;20121;-49
2021/10/19 11:49:04;;;;;;;7.47;4.55;;;;;;;;;;4985147;28;20038;-45
2021/10/19 11:51:29;;;;;;;6.10;2.90;;;;;;;;;;4986269;28;20511;-47
2021/10/19 11:53:55;;;;;;;7.07;3.50;;;;;;;;;;4987324;28;20026;-47
2021/10/19 11:56:21;;;;;;;2.15;1.45;;;;;;;;;;4991946;28;20056;-44
2021/10/19 11:58:51;;;;;;;4.60;3.55;;;;;;;;;;4989971;28;20133;-46
2021/10/19 12:01:16;;;;;;;4.15;3.78;;;;;;;;;;4994172;28;20026;-46
2021/10/19 12:03:41;;;;;;;2.38;1.50;;;;;;;;;;4993031;28;20487;-50
2021/10/19 12:06:11;;;;;;;4.00;2.83;;;;;;;;;;4994875;28;20127;-48
2021/10/19 12:08:36;;;;;;;6.03;4.95;;;;;;;;;;4992975;28;20068;-50
2021/10/19 12:11:11;;;;;;;4.57;2.33;;;;;;;;;;4983351;28;20050;-46
2021/10/19 12:13:39;;;;;;;3.53;3.10;;;;;;;;;;4993541;28;20022;-49
2021/10/19 12:16:14;;;;;;;2.72;1.63;;;;;;;;;;4982695;28;20058;-50
2021/10/19 12:18:43;;;;;;;3.80;2.95;;;;;;;;;;4985128;28;20111;-47
2021/10/19 12:21:09;;;;;;;3.60;2.97;;;;;;;;;;4987650;28;20026;-52
2021/10/19 12:23:34;;;;;;;4.10;2.42;;;;;;;;;;4984684;28;20029;-48
2021/10/19 12:26:03;;;;;;;9.15;3.17;;;;;;;;;;4987414;28;20488;-52
2021/10/19 12:28:28;;;;;;;3.97;2.85;;;;;;;;;;4989410;28;20537;-49
2021/10/19 12:30:55;;;;;;;4.20;2.97;;;;;;;;;;4989271;28;20026;-51
2021/10/19 12:33:22;;;;;;;11.75;6.72;;;;;;;;;;4996031;28;20022;-50
2021/10/19 12:36:00;;;;;;;6.75;4.75;;;;;;;;;;4994298;28;20040;-51
2021/10/19 12:38:27;;;;;;;6.30;4.20;;;;;;;;;;4991586;28;20018;-48
2021/10/19 12:40:52;;;;;;;6.55;4.25;;;;;;;;;;4992315;28;20022;-47
2021/10/19 12:43:17;;;;;;;4.63;2.88;;;;;;;;;;4992931;28;20379;-48
2021/10/19 12:45:43;;;;;;;7.20;3.22;;;;;;;;;;4988239;28;20052;-46
2021/10/19 12:48:08;;;;;;;5.82;3.10;;;;;;;;;;4991905;28;20510;-50
2021/10/19 12:50:34;;;;;;;6.47;3.17;;;;;;;;;;4995779;28;20022;-50
2021/10/19 12:53:00;;;;;;;10.38;3.72;;;;;;;;;;4992377;28;20022;-51
2021/10/19 12:55:25;;;;;;;4.22;2.67;;;;;;;;;;4989781;28;20470;-52
2021/10/19 12:57:53;;;;;;;5.22;4.10;;;;;;;;;;4987518;28;20026;-48
2021/10/19 13:00:18;;;;;;;7.47;6.05;;;;;;;;;;4985398;28;20057;-46
2021/10/19 13:02:45;;;;;;;11.48;4.80;;;;;;;;;;4990938;28;20476;-49
2021/10/19 13:05:10;;;;;;;6.50;3.38;;;;;;;;;;4988394;28;20030;-45
2021/10/19 13:07:36;;;;;;;10.95;3.28;;;;;;;;;;4988799;28;20037;-48
2021/10/19 13:10:01;;;;;;;5.97;3.15;;;;;;;;;;4982356;28;20022;-49
2021/10/19 13:12:28;;;;;;;10.55;4.07;;;;;;;;;;4993441;28;20045;-51
2021/10/19 13:14:54;;;;;;;11.05;5.75;;;;;;;;;;4985743;28;20030;-52
2021/10/19 13:17:21;;;;;;;11.63;5.45;;;;;;;;;;4989549;28;20491;-48
2021/10/19 13:19:47;;;;;;;9.02;4.10;;;;;;;;;;4988681;28;20014;-48
2021/10/19 13:22:12;;;;;;;5.22;3.85;;;;;;;;;;4986554;28;20383;-50
2021/10/19 13:24:38;;;;;;;3.88;2.83;;;;;;;;;;4989821;28;20037;-51
2021/10/19 13:27:03;;;;;;;4.50;3.63;;;;;;;;;;4989984;28;20034;-50
2021/10/19 13:29:29;;;;;;;9.82;7.47;;;;;;;;;;4991720;28;20071;-52
2021/10/19 13:31:54;;;;;;;12.07;6.38;;;;;;;;;;4989636;28;20018;-51
2021/10/19 13:34:19;;;;;;;17.90;13.95;;;;;;;;;;4989468;28;20018;-50
2021/10/19 13:36:45;;;;;;;31.80;12.63;;;;;;;;;;4988790;28;20019;-52
2021/10/19 13:39:10;;;;;;;8.93;6.15;;;;;;;;;;4993400;28;20031;-49
2021/10/19 13:41:37;;;;;;;5.65;4.90;;;;;;;;;;4988124;28;20026;-52
2021/10/19 13:44:03;;;;;;;7.45;4.22;;;;;;;;;;4987356;28;20014;-47
2021/10/19 13:46:28;;;;;;;7.18;4.00;;;;;;;;;;4987510;28;20043;-51
2021/10/19 13:48:53;;;;;;;4.55;3.55;;;;;;;;;;4987422;28;20110;-52
2021/10/19 13:51:19;;;;;;;2.00;1.10;;;;;;;;;;4989535;28;20120;-48
2021/10/19 13:53:44;;;;;;;5.80;3.35;;;;;;;;;;4989692;28;20064;-51
2021/10/19 13:56:09;;;;;;;4.47;4.00;;;;;;;;;;4988836;28;20038;-49
2021/10/19 13:58:35;;;;;;;3.90;3.08;;;;;;;;;;5002983;28;20472;-47
2021/10/19 14:01:00;;;;;;;4.93;3.55;;;;;;;;;;5023636;28;20022;-52
2021/10/19 14:03:25;;;;;;;3.78;3.38;;;;;;;;;;5001088;28;20600;-48
2021/10/19 14:05:51;;;;;;;9.43;2.90;;;;;;;;;;4996022;28;20014;-51
2021/10/19 14:08:16;;;;;;;4.90;4.07;;;;;;;;;;4994229;28;20602;-48
2021/10/19 14:10:41;;;;;;;6.65;3.45;;;;;;;;;;4990598;28;20336;-48
2021/10/19 14:13:07;;;;;;;4.03;2.15;;;;;;;;;;4993711;28;20056;-50
2021/10/19 14:15:35;;;;;;;5.50;4.00;;;;;;;;;;4989171;28;20022;-49
2021/10/19 14:18:01;;;;;;;5.18;3.65;;;;;;;;;;4988515;28;20096;-50
2021/10/19 14:20:26;;;;;;;6.28;3.92;;;;;;;;;;4991945;28;20795;-45
2021/10/19 14:22:53;;;;;;;5.40;2.80;;;;;;;;;;4987738;28;20022;-49
2021/10/19 14:25:20;;;;;;;4.63;3.95;;;;;;;;;;4992863;28;20022;-49
2021/10/19 14:27:45;;;;;;;3.28;2.35;;;;;;;;;;4985657;28;20109;-49
2021/10/19 14:30:11;;;;;;;3.15;2.78;;;;;;;;;;4988800;28;20572;-49
2021/10/19 14:32:36;;;;;;;4.43;3.75;;;;;;;;;;4987475;28;20030;-47